Terminal Aerodrome Forecast
Issued by NWS Nashville, TN

Home | Current Version | Previous Version | Text Only | Print | Product List | Glossary On
Versions: 1 2 3 4 5 6 7 8 9 10 11 12 13 14 15 16 17 18 19 20
006
FTUS44 KOHX 021720
TAFCSV
TAF
KCSV 021720Z 0218/0318 19005KT P6SM VCTS SCT020CB BKN040
      TEMPO 0218/0222 2SM TSRA OVC015CB
     FM030000 27006KT 5SM BR OVC015
     FM030600 30003KT 3SM BR OVC007=

USA.gov is the U.S. government's official web portal to all federal, state and local government web resources and services.